Marchen Maersk — OUIY2 — position and weather

sailwx.info

Track history (hours):
 
Tides and Currents Weather Stations Pressure Air Temp Water Temp Dewpoint Dewpoint Depression Visibility Wind Speed Wind Dir Waves Ship Positions

Marchen Maersk

Last reported at 2014-Dec-07 12:04 UTC. Time now 2014-Dec-20 10:25 UTC.
Position N 36°30' E 014°16'.
Warning: this ship's position is 12 days out of date.

Length 367 m; draft 14.3 m.

Type: Cargo ship. MMSI: 220594000.

Date/timePositionNaut miles runAvg speedWind from/ knotsBaromVisibWave heightAir tempDewpointWater temp
2014-Dec-07 12:04N 36°30' E 014°16'1018.3
2014-Dec-07 11:31N 36°32' E 014°04'1718.2
2014-Dec-07 10:33N 36°37' E 013°43'92619.3
2014-Dec-05 10:33N 35°58' W 005°24'24518.5
2014-Dec-04 21:18N 37°55' W 009°53'3821.7
2014-Dec-04 19:33N 38°32' W 010°05'2121.4
2014-Dec-04 18:33N 38°54' W 010°08'73218.6
2014-Dec-03 03:08N 49°57' W 002°55'1418.0
2014-Dec-03 02:20N 50°01' W 002°33'8620.6
2014-Dec-02 22:10N 50°26' W 000°25'1320.4
2014-Dec-02 21:31N 50°30' W 000°05'1919.8
2014-Dec-02 20:34N 50°35' E 000°24'1918.7
2014-Dec-02 19:34N 50°44' E 000°50'1918.8
2014-Dec-02 18:32N 50°56' E 001°13'1920.0
2014-Dec-02 17:34N 51°08' E 001°37'2120.8
2014-Dec-02 16:33N 51°25' E 001°57'2120.6
2014-Dec-02 15:33N 51°41' E 002°19'5317.6
2014-Dec-02 12:31N 52°03' E 003°37'1212.2
2014-Dec-02 11:33N 52°01' E 003°56'6 5.9
2014-Dec-02 10:33N 51°58' E 004°03'0 0.4
2014-Dec-02 09:32N 51°57' E 004°02'0 0.0
2014-Dec-02 08:32N 51°57' E 004°02'0 0.0
2014-Dec-02 07:32N 51°57' E 004°02'0 0.0
2014-Dec-02 06:32N 51°57' E 004°02'0 0.0
2014-Dec-02 05:29N 51°57' E 004°02'0 0.0
2014-Dec-02 04:32N 51°57' E 004°02'0 0.0
2014-Dec-02 03:32N 51°57' E 004°02'0 0.0
2014-Dec-02 02:32N 51°57' E 004°02'0 0.0
2014-Dec-02 01:32N 51°57' E 004°02'0 0.0
2014-Dec-02 00:32N 51°57' E 004°02'0 0.0
2014-Dec-01 23:32N 51°57' E 004°02'0 0.0
2014-Dec-01 22:32N 51°57' E 004°02'0 0.0
2014-Dec-01 21:32N 51°57' E 004°02'0 0.0
2014-Dec-01 20:32N 51°57' E 004°02'0 0.0
2014-Dec-01 19:32N 51°57' E 004°02'0 0.0
2014-Dec-01 18:32N 51°57' E 004°02'0 0.0
2014-Dec-01 17:32N 51°57' E 004°02'0 0.0
2014-Dec-01 16:32N 51°57' E 004°02'0 0.0
2014-Dec-01 15:32N 51°57' E 004°02'0 0.0
2014-Dec-01 14:32N 51°57' E 004°02'0 0.0
2014-Dec-01 13:32N 51°57' E 004°02'0 0.0
2014-Dec-01 12:32N 51°57' E 004°02'0 0.0
2014-Dec-01 11:32N 51°57' E 004°02'0 0.0
2014-Dec-01 10:32N 51°57' E 004°02'1 1.1
2014-Dec-01 09:34N 51°58' E 004°04'7 7.3
2014-Dec-01 08:33N 52°00' E 003°53'6 6.0
2014-Dec-01 07:33N 52°03' E 003°45'1413.6
2014-Dec-01 06:33N 52°17' E 003°47'1414.3
2014-Dec-01 05:34N 52°31' E 003°51'1414.0
2014-Dec-01 04:33N 52°45' E 003°56'1513.7
2014-Dec-01 03:29N 52°59' E 004°03'1413.9
2014-Dec-01 02:29N 53°08' E 004°21'1613.1
2014-Dec-01 01:15N 53°23' E 004°32'913.2
2014-Dec-01 00:33N 53°32' E 004°36'1413.2
2014-Nov-30 23:30N 53°45' E 004°44'1313.4
2014-Nov-30 22:33N 53°57' E 004°51'1413.6
2014-Nov-30 21:33N 54°09' E 004°59'1414.0
2014-Nov-30 20:33N 54°22' E 005°09'2214.8
2014-Nov-30 19:05N 54°42' E 005°24'814.9
2014-Nov-30 18:33N 54°50' E 005°29'1514.8
2014-Nov-30 17:33N 55°03' E 005°39'1814.5
2014-Nov-30 16:18N 55°20' E 005°51'1114.2
2014-Nov-30 15:32N 55°29' E 006°00'20612.9
2014-Nov-29 23:33N 57°52' E 010°31'1413.6
2014-Nov-29 22:33N 57°49' E 010°56'1414.1
2014-Nov-29 21:33N 57°41' E 011°17'1212.4
2014-Nov-29 20:33N 57°36' E 011°39'9 8.8
2014-Nov-29 19:34N 57°41' E 011°52'0 0.1
2014-Nov-29 18:32N 57°41' E 011°52'0 0.0
2014-Nov-29 17:32N 57°41' E 011°52'0 0.0
2014-Nov-29 16:32N 57°41' E 011°52'0 0.0
2014-Nov-29 15:29N 57°41' E 011°52'0 0.0
2014-Nov-29 14:32N 57°41' E 011°52'0 0.0
2014-Nov-29 13:32N 57°41' E 011°52'0 0.0
2014-Nov-29 12:32N 57°41' E 011°52'0 0.0
2014-Nov-29 11:32N 57°41' E 011°52'0 0.0
2014-Nov-29 10:29N 57°41' E 011°52'0 0.0
2014-Nov-29 09:32N 57°41' E 011°52'0 0.0
2014-Nov-29 08:32N 57°41' E 011°52'0 0.0
2014-Nov-29 07:32N 57°41' E 011°52'0 0.0
2014-Nov-29 06:32N 57°41' E 011°52'0 0.0
2014-Nov-29 05:32N 57°41' E 011°52'0 0.0
2014-Nov-29 04:29N 57°41' E 011°52'0 0.0
2014-Nov-29 03:32N 57°41' E 011°52'0 0.0
2014-Nov-29 02:32N 57°41' E 011°52'0 0.2
2014-Nov-29 01:33N 57°41' E 011°51'6 5.7
2014-Nov-29 00:33N 57°39' E 011°41'8 8.0
2014-Nov-28 23:34N 57°38' E 011°27'10 9.8
2014-Nov-28 22:33N 57°43' E 011°11'1010.5
2014-Nov-28 21:34N 57°49' E 010°55'1010.4
2014-Nov-28 20:34N 57°54' E 010°37'1010.3
2014-Nov-28 19:34N 57°54' E 010°18'1110.5
2014-Nov-28 18:33N 57°52' E 009°58'1210.9
2014-Nov-28 17:29N 57°50' E 009°37'1011.0
2014-Nov-28 16:32N 57°44' E 009°20'14711.0
2014-Nov-28 03:11N 55°43' E 006°47'811.8
2014-Nov-28 02:33N 55°36' E 006°42'1211.7
2014-Nov-28 01:33N 55°25' E 006°41'1211.6
2014-Nov-28 00:33N 55°13' E 006°41'1211.5
2014-Nov-27 23:32N 55°01' E 006°41'1211.8
2014-Nov-27 22:33N 54°51' E 006°50'1211.9
2014-Nov-27 21:33N 54°41' E 007°01'1312.1
2014-Nov-27 20:31N 54°30' E 007°11'1212.5
2014-Nov-27 19:33N 54°19' E 007°21'1312.9
2014-Nov-27 18:33N 54°08' E 007°32'1413.9
2014-Nov-27 17:33N 53°56' E 007°43'1514.5
2014-Nov-27 16:33N 53°50' E 008°05'1716.7
2014-Nov-27 15:34N 53°38' E 008°26'4 3.9
2014-Nov-27 14:31N 53°36' E 008°31'0 0.0
2014-Nov-27 13:31N 53°36' E 008°31'0 0.0
2014-Nov-27 12:31N 53°36' E 008°31'  
Track history (hours):
 
Tides and Currents Weather Stations Pressure Air Temp Water Temp Dewpoint Dewpoint Depression Visibility Wind Speed Wind Dir Waves Ship Positions

Marchen Maersk

Last reported at 2014-Dec-07 12:04 UTC. Time now 2014-Dec-20 10:25 UTC.
Position N 36°30' E 014°16'.
Warning: this ship's position is 12 days out of date.

Length 367 m; draft 14.3 m.

Type: Cargo ship. MMSI: 220594000.

Date/timePositionNaut miles runAvg speedWind from/ knotsBaromVisibWave heightAir tempDewpointWater temp
2014-Dec-07 12:04N 36°30' E 014°16'1018.3
2014-Dec-07 11:31N 36°32' E 014°04'1718.2
2014-Dec-07 10:33N 36°37' E 013°43'92619.3
2014-Dec-05 10:33N 35°58' W 005°24'24518.5
2014-Dec-04 21:18N 37°55' W 009°53'3821.7
2014-Dec-04 19:33N 38°32' W 010°05'2121.4
2014-Dec-04 18:33N 38°54' W 010°08'73218.6
2014-Dec-03 03:08N 49°57' W 002°55'1418.0
2014-Dec-03 02:20N 50°01' W 002°33'8620.6
2014-Dec-02 22:10N 50°26' W 000°25'1320.4
2014-Dec-02 21:31N 50°30' W 000°05'1919.8
2014-Dec-02 20:34N 50°35' E 000°24'1918.7
2014-Dec-02 19:34N 50°44' E 000°50'1918.8
2014-Dec-02 18:32N 50°56' E 001°13'1920.0
2014-Dec-02 17:34N 51°08' E 001°37'2120.8
2014-Dec-02 16:33N 51°25' E 001°57'2120.6
2014-Dec-02 15:33N 51°41' E 002°19'5317.6
2014-Dec-02 12:31N 52°03' E 003°37'1212.2
2014-Dec-02 11:33N 52°01' E 003°56'6 5.9
2014-Dec-02 10:33N 51°58' E 004°03'0 0.4
2014-Dec-02 09:32N 51°57' E 004°02'0 0.0
2014-Dec-02 08:32N 51°57' E 004°02'0 0.0
2014-Dec-02 07:32N 51°57' E 004°02'0 0.0
2014-Dec-02 06:32N 51°57' E 004°02'0 0.0
2014-Dec-02 05:29N 51°57' E 004°02'0 0.0
2014-Dec-02 04:32N 51°57' E 004°02'0 0.0
2014-Dec-02 03:32N 51°57' E 004°02'0 0.0
2014-Dec-02 02:32N 51°57' E 004°02'0 0.0
2014-Dec-02 01:32N 51°57' E 004°02'0 0.0
2014-Dec-02 00:32N 51°57' E 004°02'0 0.0
2014-Dec-01 23:32N 51°57' E 004°02'0 0.0
2014-Dec-01 22:32N 51°57' E 004°02'0 0.0
2014-Dec-01 21:32N 51°57' E 004°02'0 0.0
2014-Dec-01 20:32N 51°57' E 004°02'0 0.0
2014-Dec-01 19:32N 51°57' E 004°02'0 0.0
2014-Dec-01 18:32N 51°57' E 004°02'0 0.0
2014-Dec-01 17:32N 51°57' E 004°02'0 0.0
2014-Dec-01 16:32N 51°57' E 004°02'0 0.0
2014-Dec-01 15:32N 51°57' E 004°02'0 0.0
2014-Dec-01 14:32N 51°57' E 004°02'0 0.0
2014-Dec-01 13:32N 51°57' E 004°02'0 0.0
2014-Dec-01 12:32N 51°57' E 004°02'0 0.0
2014-Dec-01 11:32N 51°57' E 004°02'0 0.0
2014-Dec-01 10:32N 51°57' E 004°02'1 1.1
2014-Dec-01 09:34N 51°58' E 004°04'7 7.3
2014-Dec-01 08:33N 52°00' E 003°53'6 6.0
2014-Dec-01 07:33N 52°03' E 003°45'1413.6
2014-Dec-01 06:33N 52°17' E 003°47'1414.3
2014-Dec-01 05:34N 52°31' E 003°51'1414.0
2014-Dec-01 04:33N 52°45' E 003°56'1513.7
2014-Dec-01 03:29N 52°59' E 004°03'1413.9
2014-Dec-01 02:29N 53°08' E 004°21'1613.1
2014-Dec-01 01:15N 53°23' E 004°32'913.2
2014-Dec-01 00:33N 53°32' E 004°36'1413.2
2014-Nov-30 23:30N 53°45' E 004°44'1313.4
2014-Nov-30 22:33N 53°57' E 004°51'1413.6
2014-Nov-30 21:33N 54°09' E 004°59'1414.0
2014-Nov-30 20:33N 54°22' E 005°09'2214.8
2014-Nov-30 19:05N 54°42' E 005°24'814.9
2014-Nov-30 18:33N 54°50' E 005°29'1514.8
2014-Nov-30 17:33N 55°03' E 005°39'1814.5
2014-Nov-30 16:18N 55°20' E 005°51'1114.2
2014-Nov-30 15:32N 55°29' E 006°00'20612.9
2014-Nov-29 23:33N 57°52' E 010°31'1413.6
2014-Nov-29 22:33N 57°49' E 010°56'1414.1
2014-Nov-29 21:33N 57°41' E 011°17'1212.4
2014-Nov-29 20:33N 57°36' E 011°39'9 8.8
2014-Nov-29 19:34N 57°41' E 011°52'0 0.1
2014-Nov-29 18:32N 57°41' E 011°52'0 0.0
2014-Nov-29 17:32N 57°41' E 011°52'0 0.0
2014-Nov-29 16:32N 57°41' E 011°52'0 0.0
2014-Nov-29 15:29N 57°41' E 011°52'0 0.0
2014-Nov-29 14:32N 57°41' E 011°52'0 0.0
2014-Nov-29 13:32N 57°41' E 011°52'0 0.0
2014-Nov-29 12:32N 57°41' E 011°52'0 0.0
2014-Nov-29 11:32N 57°41' E 011°52'0 0.0
2014-Nov-29 10:29N 57°41' E 011°52'0 0.0
2014-Nov-29 09:32N 57°41' E 011°52'0 0.0
2014-Nov-29 08:32N 57°41' E 011°52'0 0.0
2014-Nov-29 07:32N 57°41' E 011°52'0 0.0
2014-Nov-29 06:32N 57°41' E 011°52'0 0.0
2014-Nov-29 05:32N 57°41' E 011°52'0 0.0
2014-Nov-29 04:29N 57°41' E 011°52'0 0.0
2014-Nov-29 03:32N 57°41' E 011°52'0 0.0
2014-Nov-29 02:32N 57°41' E 011°52'0 0.2
2014-Nov-29 01:33N 57°41' E 011°51'6 5.7
2014-Nov-29 00:33N 57°39' E 011°41'8 8.0
2014-Nov-28 23:34N 57°38' E 011°27'10 9.8
2014-Nov-28 22:33N 57°43' E 011°11'1010.5
2014-Nov-28 21:34N 57°49' E 010°55'1010.4
2014-Nov-28 20:34N 57°54' E 010°37'1010.3
2014-Nov-28 19:34N 57°54' E 010°18'1110.5
2014-Nov-28 18:33N 57°52' E 009°58'1210.9
2014-Nov-28 17:29N 57°50' E 009°37'1011.0
2014-Nov-28 16:32N 57°44' E 009°20'14711.0
2014-Nov-28 03:11N 55°43' E 006°47'811.8
2014-Nov-28 02:33N 55°36' E 006°42'1211.7
2014-Nov-28 01:33N 55°25' E 006°41'1211.6
2014-Nov-28 00:33N 55°13' E 006°41'1211.5
2014-Nov-27 23:32N 55°01' E 006°41'1211.8
2014-Nov-27 22:33N 54°51' E 006°50'1211.9
2014-Nov-27 21:33N 54°41' E 007°01'1312.1
2014-Nov-27 20:31N 54°30' E 007°11'1212.5
2014-Nov-27 19:33N 54°19' E 007°21'1312.9
2014-Nov-27 18:33N 54°08' E 007°32'1413.9
2014-Nov-27 17:33N 53°56' E 007°43'1514.5
2014-Nov-27 16:33N 53°50' E 008°05'1716.7
2014-Nov-27 15:34N 53°38' E 008°26'4 3.9
2014-Nov-27 14:31N 53°36' E 008°31'0 0.0
2014-Nov-27 13:31N 53°36' E 008°31'0 0.0
2014-Nov-27 12:31N 53°36' E 008°31'  

Dump ship's entire track history